sensor_id;sensor_type;location;lat;lon;timestamp;pressure;altitude;pressure_sealevel;temperature;humidity
5905;BME280;2978;42.012;24.880;2022-07-19T00:01:41;99415.41;;;21.13;67.15
5905;BME280;2978;42.012;24.880;2022-07-19T00:04:06;99418.03;;;21.10;67.19
5905;BME280;2978;42.012;24.880;2022-07-19T00:06:32;99411.94;;;21.08;66.98
5905;BME280;2978;42.012;24.880;2022-07-19T00:08:58;99405.22;;;21.09;66.67
5905;BME280;2978;42.012;24.880;2022-07-19T00:11:24;99410.97;;;21.12;66.34
5905;BME280;2978;42.012;24.880;2022-07-19T00:13:49;99411.66;;;21.09;66.55
5905;BME280;2978;42.012;24.880;2022-07-19T00:16:15;99410.16;;;21.12;65.99
5905;BME280;2978;42.012;24.880;2022-07-19T00:18:41;99402.44;;;21.00;66.38
5905;BME280;2978;42.012;24.880;2022-07-19T00:21:07;99400.41;;;20.92;67.09
5905;BME280;2978;42.012;24.880;2022-07-19T00:23:32;99395.28;;;20.86;67.44
5905;BME280;2978;42.012;24.880;2022-07-19T00:25:58;99413.72;;;20.87;68.03
5905;BME280;2978;42.012;24.880;2022-07-19T00:28:23;99403.34;;;20.87;67.69
5905;BME280;2978;42.012;24.880;2022-07-19T00:30:49;99405.47;;;20.82;67.92
5905;BME280;2978;42.012;24.880;2022-07-19T00:33:14;99400.06;;;20.85;67.43
5905;BME280;2978;42.012;24.880;2022-07-19T00:35:40;99391.38;;;20.87;67.36
5905;BME280;2978;42.012;24.880;2022-07-19T00:38:08;99389.38;;;20.96;67.41
5905;BME280;2978;42.012;24.880;2022-07-19T00:40:34;99391.84;;;20.97;67.21
5905;BME280;2978;42.012;24.880;2022-07-19T00:42:59;99394.53;;;21.02;67.31
5905;BME280;2978;42.012;24.880;2022-07-19T00:45:25;99382.16;;;20.95;67.02
5905;BME280;2978;42.012;24.880;2022-07-19T00:47:51;99380.50;;;20.94;66.63
5905;BME280;2978;42.012;24.880;2022-07-19T00:50:18;99387.63;;;21.08;65.29
5905;BME280;2978;42.012;24.880;2022-07-19T00:52:46;99380.06;;;21.17;64.57
5905;BME280;2978;42.012;24.880;2022-07-19T00:55:15;99386.31;;;21.23;63.42
5905;BME280;2978;42.012;24.880;2022-07-19T00:57:43;99370.81;;;21.25;62.57
5905;BME280;2978;42.012;24.880;2022-07-19T01:00:09;99378.22;;;21.39;62.25
5905;BME280;2978;42.012;24.880;2022-07-19T01:02:35;99370.00;;;21.42;61.98
5905;BME280;2978;42.012;24.880;2022-07-19T01:05:01;99369.16;;;21.50;62.90
5905;BME280;2978;42.012;24.880;2022-07-19T01:07:26;99371.13;;;21.50;62.83
5905;BME280;2978;42.012;24.880;2022-07-19T01:09:52;99366.03;;;21.43;63.82
5905;BME280;2978;42.012;24.880;2022-07-19T01:12:19;99374.44;;;21.35;64.15
5905;BME280;2978;42.012;24.880;2022-07-19T01:14:45;99370.66;;;21.22;64.31
5905;BME280;2978;42.012;24.880;2022-07-19T01:17:11;99368.38;;;21.15;64.67
5905;BME280;2978;42.012;24.880;2022-07-19T01:19:36;99375.47;;;21.13;64.70
5905;BME280;2978;42.012;24.880;2022-07-19T01:22:02;99374.28;;;21.14;64.30
5905;BME280;2978;42.012;24.880;2022-07-19T01:24:27;99366.91;;;21.09;63.57
5905;BME280;2978;42.012;24.880;2022-07-19T01:26:53;99367.53;;;21.06;63.95
5905;BME280;2978;42.012;24.880;2022-07-19T01:29:19;99368.53;;;21.10;62.82
5905;BME280;2978;42.012;24.880;2022-07-19T01:31:44;99362.44;;;21.17;62.96
5905;BME280;2978;42.012;24.880;2022-07-19T01:34:10;99365.41;;;21.12;63.77
5905;BME280;2978;42.012;24.880;2022-07-19T01:36:35;99369.31;;;20.94;64.37
5905;BME280;2978;42.012;24.880;2022-07-19T01:39:01;99372.78;;;20.91;64.55
5905;BME280;2978;42.012;24.880;2022-07-19T01:41:26;99381.31;;;20.86;64.49
5905;BME280;2978;42.012;24.880;2022-07-19T01:43:52;99372.28;;;20.89;65.21
5905;BME280;2978;42.012;24.880;2022-07-19T01:46:17;99382.78;;;20.75;67.08
5905;BME280;2978;42.012;24.880;2022-07-19T01:48:43;99377.50;;;20.65;67.53
5905;BME280;2978;42.012;24.880;2022-07-19T01:51:08;99379.78;;;20.63;66.49
5905;BME280;2978;42.012;24.880;2022-07-19T01:53:34;99379.47;;;20.64;65.14
5905;BME280;2978;42.012;24.880;2022-07-19T01:56:03;99374.03;;;20.68;65.24
5905;BME280;2978;42.012;24.880;2022-07-19T01:58:29;99374.03;;;20.51;65.18
5905;BME280;2978;42.012;24.880;2022-07-19T02:00:54;99381.94;;;20.57;65.54
5905;BME280;2978;42.012;24.880;2022-07-19T02:03:20;99380.97;;;20.62;66.09
5905;BME280;2978;42.012;24.880;2022-07-19T02:05:45;99378.00;;;20.58;66.45
5905;BME280;2978;42.012;24.880;2022-07-19T02:08:11;99378.47;;;20.52;66.97
5905;BME280;2978;42.012;24.880;2022-07-19T02:10:36;99377.47;;;20.48;67.10
5905;BME280;2978;42.012;24.880;2022-07-19T02:13:02;99376.47;;;20.44;66.64
5905;BME280;2978;42.012;24.880;2022-07-19T02:15:27;99376.78;;;20.34;67.01
5905;BME280;2978;42.012;24.880;2022-07-19T02:17:53;99385.81;;;20.31;67.46
5905;BME280;2978;42.012;24.880;2022-07-19T02:20:18;99387.06;;;20.16;67.97
5905;BME280;2978;42.012;24.880;2022-07-19T02:22:45;99391.31;;;20.13;67.78
5905;BME280;2978;42.012;24.880;2022-07-19T02:25:11;99399.78;;;20.08;68.09
5905;BME280;2978;42.012;24.880;2022-07-19T02:27:36;99385.78;;;20.00;67.83
5905;BME280;2978;42.012;24.880;2022-07-19T02:30:03;99398.13;;;19.99;67.46
5905;BME280;2978;42.012;24.880;2022-07-19T02:32:28;99391.34;;;19.91;67.19
5905;BME280;2978;42.012;24.880;2022-07-19T02:34:54;99400.38;;;19.88;67.57
5905;BME280;2978;42.012;24.880;2022-07-19T02:37:19;99402.13;;;19.84;68.29
5905;BME280;2978;42.012;24.880;2022-07-19T02:39:45;99403.44;;;19.78;68.40
5905;BME280;2978;42.012;24.880;2022-07-19T02:42:10;99407.03;;;19.79;67.87
5905;BME280;2978;42.012;24.880;2022-07-19T02:44:36;99399.47;;;19.79;67.78
5905;BME280;2978;42.012;24.880;2022-07-19T02:47:01;99406.72;;;19.80;67.76
5905;BME280;2978;42.012;24.880;2022-07-19T02:49:27;99399.47;;;19.79;68.11
5905;BME280;2978;42.012;24.880;2022-07-19T02:51:52;99397.34;;;19.76;68.20
5905;BME280;2978;42.012;24.880;2022-07-19T02:54:18;99402.78;;;19.81;68.16
5905;BME280;2978;42.012;24.880;2022-07-19T02:56:43;99396.56;;;19.84;67.88
5905;BME280;2978;42.012;24.880;2022-07-19T02:59:09;99404.59;;;19.86;67.51
5905;BME280;2978;42.012;24.880;2022-07-19T03:01:34;99398.84;;;19.82;67.13
5905;BME280;2978;42.012;24.880;2022-07-19T03:04:00;99399.34;;;19.84;65.63
5905;BME280;2978;42.012;24.880;2022-07-19T03:06:25;99397.44;;;19.93;65.28
5905;BME280;2978;42.012;24.880;2022-07-19T03:08:51;99386.78;;;19.95;64.95
5905;BME280;2978;42.012;24.880;2022-07-19T03:11:17;99393.56;;;20.03;64.58
5905;BME280;2978;42.012;24.880;2022-07-19T03:13:42;99406.53;;;20.07;63.71
5905;BME280;2978;42.012;24.880;2022-07-19T03:16:08;99398.00;;;20.12;63.58
5905;BME280;2978;42.012;24.880;2022-07-19T03:18:34;99404.56;;;20.08;63.20
5905;BME280;2978;42.012;24.880;2022-07-19T03:21:00;99403.59;;;20.12;62.97
5905;BME280;2978;42.012;24.880;2022-07-19T03:23:37;99416.81;;;20.21;61.90
5905;BME280;2978;42.012;24.880;2022-07-19T03:26:04;99408.13;;;20.22;61.72
5905;BME280;2978;42.012;24.880;2022-07-19T03:28:30;99415.00;;;20.25;61.67
5905;BME280;2978;42.012;24.880;2022-07-19T03:30:55;99413.72;;;20.31;61.41
5905;BME280;2978;42.012;24.880;2022-07-19T03:33:21;99413.59;;;20.36;61.50
5905;BME280;2978;42.012;24.880;2022-07-19T03:35:46;99414.72;;;20.35;61.32
5905;BME280;2978;42.012;24.880;2022-07-19T03:38:13;99416.88;;;20.38;61.66
5905;BME280;2978;42.012;24.880;2022-07-19T03:40:40;99414.59;;;20.40;61.48
5905;BME280;2978;42.012;24.880;2022-07-19T03:43:06;99409.00;;;20.40;61.37
5905;BME280;2978;42.012;24.880;2022-07-19T03:45:32;99417.25;;;20.45;60.78
5905;BME280;2978;42.012;24.880;2022-07-19T03:47:58;99416.59;;;20.48;60.48
5905;BME280;2978;42.012;24.880;2022-07-19T03:50:23;99415.59;;;20.52;60.22
5905;BME280;2978;42.012;24.880;2022-07-19T03:52:48;99414.44;;;20.45;60.90
5905;BME280;2978;42.012;24.880;2022-07-19T03:55:14;99430.22;;;20.49;61.40
5905;BME280;2978;42.012;24.880;2022-07-19T03:57:39;99425.50;;;20.58;60.96
5905;BME280;2978;42.012;24.880;2022-07-19T04:00:06;99406.59;;;20.55;60.17
5905;BME280;2978;42.012;24.880;2022-07-19T04:02:31;99421.56;;;20.68;60.30
5905;BME280;2978;42.012;24.880;2022-07-19T04:04:57;99416.78;;;20.68;59.47
5905;BME280;2978;42.012;24.880;2022-07-19T04:07:23;99420.09;;;20.70;58.85
5905;BME280;2978;42.012;24.880;2022-07-19T04:09:48;99415.69;;;20.78;58.98
5905;BME280;2978;42.012;24.880;2022-07-19T04:12:14;99430.66;;;20.90;58.54
5905;BME280;2978;42.012;24.880;2022-07-19T04:14:39;99427.09;;;20.98;58.19
5905;BME280;2978;42.012;24.880;2022-07-19T04:17:05;99427.59;;;21.09;57.76
5905;BME280;2978;42.012;24.880;2022-07-19T04:19:31;99425.13;;;21.07;57.82
5905;BME280;2978;42.012;24.880;2022-07-19T04:21:56;99421.50;;;21.67;56.73
5905;BME280;2978;42.012;24.880;2022-07-19T04:24:22;99420.53;;;22.93;52.65
5905;BME280;2978;42.012;24.880;2022-07-19T04:26:47;99426.03;;;24.04;48.77
5905;BME280;2978;42.012;24.880;2022-07-19T04:29:13;99416.75;;;24.73;46.16
5905;BME280;2978;42.012;24.880;2022-07-19T04:31:38;99431.22;;;25.35;44.57
5905;BME280;2978;42.012;24.880;2022-07-19T04:34:04;99422.19;;;25.69;44.12
5905;BME280;2978;42.012;24.880;2022-07-19T04:36:29;99426.44;;;25.91;43.64
5905;BME280;2978;42.012;24.880;2022-07-19T04:38:54;99426.50;;;26.06;43.30
5905;BME280;2978;42.012;24.880;2022-07-19T04:41:20;99428.81;;;26.32;42.31
5905;BME280;2978;42.012;24.880;2022-07-19T04:43:45;99429.94;;;26.74;41.94
5905;BME280;2978;42.012;24.880;2022-07-19T04:46:11;99425.78;;;27.03;40.91
5905;BME280;2978;42.012;24.880;2022-07-19T04:48:36;99430.59;;;27.18;40.62
5905;BME280;2978;42.012;24.880;2022-07-19T04:51:02;99424.84;;;27.30;39.85
5905;BME280;2978;42.012;24.880;2022-07-19T04:53:27;99425.22;;;27.47;39.15
5905;BME280;2978;42.012;24.880;2022-07-19T04:55:53;99425.47;;;27.58;39.10
5905;BME280;2978;42.012;24.880;2022-07-19T04:58:18;99432.22;;;27.72;38.83
5905;BME280;2978;42.012;24.880;2022-07-19T05:00:43;99430.06;;;27.66;39.38
5905;BME280;2978;42.012;24.880;2022-07-19T05:03:09;99436.38;;;27.79;39.11
5905;BME280;2978;42.012;24.880;2022-07-19T05:05:34;99437.06;;;27.72;38.48
5905;BME280;2978;42.012;24.880;2022-07-19T05:08:00;99428.59;;;27.72;38.45
5905;BME280;2978;42.012;24.880;2022-07-19T05:10:25;99439.16;;;27.94;38.29
5905;BME280;2978;42.012;24.880;2022-07-19T05:12:51;99426.47;;;27.69;38.53
5905;BME280;2978;42.012;24.880;2022-07-19T05:15:16;99433.13;;;27.96;38.67
5905;BME280;2978;42.012;24.880;2022-07-19T05:17:42;99436.56;;;28.27;38.06
5905;BME280;2978;42.012;24.880;2022-07-19T05:20:08;99432.81;;;28.42;37.52
5905;BME280;2978;42.012;24.880;2022-07-19T05:22:34;99424.69;;;28.41;37.02
5905;BME280;2978;42.012;24.880;2022-07-19T05:25:00;99434.56;;;28.50;37.13
5905;BME280;2978;42.012;24.880;2022-07-19T05:27:25;99434.97;;;28.71;36.89
5905;BME280;2978;42.012;24.880;2022-07-19T05:29:51;99438.22;;;28.73;36.91
5905;BME280;2978;42.012;24.880;2022-07-19T05:32:17;99437.44;;;28.73;36.84
5905;BME280;2978;42.012;24.880;2022-07-19T05:34:42;99433.69;;;28.92;37.07
5905;BME280;2978;42.012;24.880;2022-07-19T05:37:08;99443.09;;;29.22;36.32
5905;BME280;2978;42.012;24.880;2022-07-19T05:39:33;99431.06;;;29.06;36.33
5905;BME280;2978;42.012;24.880;2022-07-19T05:45:21;99437.84;;;29.50;35.75
5905;BME280;2978;42.012;24.880;2022-07-19T05:47:46;99441.66;;;29.64;35.75
5905;BME280;2978;42.012;24.880;2022-07-19T05:50:12;99442.69;;;29.79;34.89
5905;BME280;2978;42.012;24.880;2022-07-19T05:52:37;99446.03;;;29.58;35.08
5905;BME280;2978;42.012;24.880;2022-07-19T05:55:04;99443.53;;;29.24;36.20
5905;BME280;2978;42.012;24.880;2022-07-19T05:57:30;99442.94;;;29.11;36.14
5905;BME280;2978;42.012;24.880;2022-07-19T05:59:56;99447.00;;;29.14;36.37
5905;BME280;2978;42.012;24.880;2022-07-19T06:02:21;99448.47;;;29.30;36.81
5905;BME280;2978;42.012;24.880;2022-07-19T06:04:47;99452.41;;;29.52;36.25
5905;BME280;2978;42.012;24.880;2022-07-19T06:07:12;99443.00;;;29.70;36.08
5905;BME280;2978;42.012;24.880;2022-07-19T06:09:37;99454.31;;;30.00;37.15
5905;BME280;2978;42.012;24.880;2022-07-19T06:12:03;99455.97;;;30.05;37.77
5905;BME280;2978;42.012;24.880;2022-07-19T06:14:28;99453.72;;;29.88;38.87
5905;BME280;2978;42.012;24.880;2022-07-19T06:16:54;99444.91;;;29.66;39.42
5905;BME280;2978;42.012;24.880;2022-07-19T06:19:19;66104.38;;;-143.09;100.00
5905;BME280;2978;42.012;24.880;2022-07-19T06:21:45;66104.38;;;-143.09;100.00
5905;BME280;2978;42.012;24.880;2022-07-19T06:24:13;99452.75;;;28.72;41.13
5905;BME280;2978;42.012;24.880;2022-07-19T06:26:39;99447.84;;;28.46;41.35
5905;BME280;2978;42.012;24.880;2022-07-19T06:29:04;99452.28;;;28.25;42.12
5905;BME280;2978;42.012;24.880;2022-07-19T06:31:30;99451.91;;;27.88;42.15
5905;BME280;2978;42.012;24.880;2022-07-19T06:33:55;99451.69;;;27.77;42.95
5905;BME280;2978;42.012;24.880;2022-07-19T06:36:21;99454.91;;;27.76;42.74
5905;BME280;2978;42.012;24.880;2022-07-19T06:38:47;99450.16;;;27.61;42.82
5905;BME280;2978;42.012;24.880;2022-07-19T06:41:13;99456.09;;;27.56;44.05
5905;BME280;2978;42.012;24.880;2022-07-19T06:43:40;99450.16;;;27.61;43.80
5905;BME280;2978;42.012;24.880;2022-07-19T06:46:06;99450.59;;;27.63;44.28
5905;BME280;2978;42.012;24.880;2022-07-19T06:48:32;99437.94;;;27.76;44.53
5905;BME280;2978;42.012;24.880;2022-07-19T06:50:57;99441.22;;;27.78;44.65
5905;BME280;2978;42.012;24.880;2022-07-19T06:53:23;99436.59;;;27.89;44.34
5905;BME280;2978;42.012;24.880;2022-07-19T06:55:48;99432.44;;;27.83;44.70
5905;BME280;2978;42.012;24.880;2022-07-19T06:58:14;99434.41;;;27.98;44.32
5905;BME280;2978;42.012;24.880;2022-07-19T07:00:40;99432.00;;;28.00;44.34
5905;BME280;2978;42.012;24.880;2022-07-19T07:03:05;99428.75;;;27.98;44.37
5905;BME280;2978;42.012;24.880;2022-07-19T07:05:32;99425.28;;;27.89;44.51
5905;BME280;2978;42.012;24.880;2022-07-19T07:07:57;99430.22;;;27.92;44.32
5905;BME280;2978;42.012;24.880;2022-07-19T07:10:23;99417.66;;;28.09;43.74
5905;BME280;2978;42.012;24.880;2022-07-19T07:12:48;99429.72;;;28.28;42.86
5905;BME280;2978;42.012;24.880;2022-07-19T07:15:15;99429.13;;;28.19;42.21
5905;BME280;2978;42.012;24.880;2022-07-19T07:17:40;99422.94;;;28.33;42.32
5905;BME280;2978;42.012;24.880;2022-07-19T07:20:07;99424.63;;;28.37;41.72
5905;BME280;2978;42.012;24.880;2022-07-19T07:22:34;99423.00;;;28.14;41.78
5905;BME280;2978;42.012;24.880;2022-07-19T07:24:59;99426.03;;;28.24;42.43
5905;BME280;2978;42.012;24.880;2022-07-19T07:27:25;99422.69;;;28.19;41.64
5905;BME280;2978;42.012;24.880;2022-07-19T07:29:51;99426.56;;;28.33;40.39
5905;BME280;2978;42.012;24.880;2022-07-19T07:32:17;99419.66;;;28.31;40.02
5905;BME280;2978;42.012;24.880;2022-07-19T07:34:43;99409.19;;;28.31;37.75
5905;BME280;2978;42.012;24.880;2022-07-19T07:37:08;99411.38;;;28.41;39.68
5905;BME280;2978;42.012;24.880;2022-07-19T07:39:34;99419.69;;;28.53;38.94
5905;BME280;2978;42.012;24.880;2022-07-19T07:41:59;99418.78;;;28.49;37.40
5905;BME280;2978;42.012;24.880;2022-07-19T07:44:25;99424.00;;;28.47;33.71
5905;BME280;2978;42.012;24.880;2022-07-19T07:46:50;99413.06;;;28.46;33.54
5905;BME280;2978;42.012;24.880;2022-07-19T07:49:15;99427.25;;;28.49;34.12
5905;BME280;2978;42.012;24.880;2022-07-19T07:51:41;99419.03;;;28.41;33.33
5905;BME280;2978;42.012;24.880;2022-07-19T07:54:25;99414.13;;;28.38;33.85
5905;BME280;2978;42.012;24.880;2022-07-19T07:56:51;99414.03;;;28.53;33.60
5905;BME280;2978;42.012;24.880;2022-07-19T07:59:16;99411.88;;;28.69;31.77
5905;BME280;2978;42.012;24.880;2022-07-19T08:01:42;99421.34;;;28.80;31.96
5905;BME280;2978;42.012;24.880;2022-07-19T08:04:09;99420.56;;;28.80;31.59
5905;BME280;2978;42.012;24.880;2022-07-19T08:06:35;99413.28;;;28.56;31.29
5905;BME280;2978;42.012;24.880;2022-07-19T08:09:00;99406.56;;;28.64;32.65
5905;BME280;2978;42.012;24.880;2022-07-19T08:11:26;99413.59;;;28.51;33.02
5905;BME280;2978;42.012;24.880;2022-07-19T08:13:51;99402.41;;;28.58;32.50
5905;BME280;2978;42.012;24.880;2022-07-19T08:16:17;99398.78;;;28.39;32.63
5905;BME280;2978;42.012;24.880;2022-07-19T08:18:44;99396.13;;;28.49;32.52
5905;BME280;2978;42.012;24.880;2022-07-19T08:21:09;99398.69;;;28.54;31.82
5905;BME280;2978;42.012;24.880;2022-07-19T08:23:35;99402.50;;;28.65;30.96
5905;BME280;2978;42.012;24.880;2022-07-19T08:26:01;99402.41;;;28.58;30.66
5905;BME280;2978;42.012;24.880;2022-07-19T08:28:29;99393.84;;;28.55;30.60
5905;BME280;2978;42.012;24.880;2022-07-19T08:30:54;99393.31;;;28.49;31.84
5905;BME280;2978;42.012;24.880;2022-07-19T08:33:20;99394.97;;;28.50;31.94
5905;BME280;2978;42.012;24.880;2022-07-19T08:35:45;99386.63;;;28.57;32.29
5905;BME280;2978;42.012;24.880;2022-07-19T08:38:11;99409.78;;;28.66;30.09
5905;BME280;2978;42.012;24.880;2022-07-19T08:40:36;99392.47;;;28.49;30.87
5905;BME280;2978;42.012;24.880;2022-07-19T08:43:05;99384.53;;;28.54;30.59
5905;BME280;2978;42.012;24.880;2022-07-19T08:45:31;99398.69;;;28.54;29.95
5905;BME280;2978;42.012;24.880;2022-07-19T08:47:58;99401.19;;;28.59;29.82
5905;BME280;2978;42.012;24.880;2022-07-19T08:50:25;99396.28;;;28.56;29.44
5905;BME280;2978;42.012;24.880;2022-07-19T08:52:52;99387.78;;;28.56;29.58
5905;BME280;2978;42.012;24.880;2022-07-19T08:55:17;99390.94;;;28.51;28.92
5905;BME280;2978;42.012;24.880;2022-07-19T08:57:43;99387.91;;;28.41;29.00
5905;BME280;2978;42.012;24.880;2022-07-19T09:00:31;99383.50;;;28.43;29.52
5905;BME280;2978;42.012;24.880;2022-07-19T09:05:24;99387.34;;;28.32;30.01
5905;BME280;2978;42.012;24.880;2022-07-19T09:08:12;99386.22;;;28.14;29.86
5905;BME280;2978;42.012;24.880;2022-07-19T09:10:40;99382.00;;;28.04;30.38
5905;BME280;2978;42.012;24.880;2022-07-19T09:13:12;99384.88;;;27.89;30.25
5905;BME280;2978;42.012;24.880;2022-07-19T09:15:53;99384.00;;;28.04;30.50
5905;BME280;2978;42.012;24.880;2022-07-19T09:18:27;99379.59;;;28.06;31.26
5905;BME280;2978;42.012;24.880;2022-07-19T09:20:59;99378.28;;;28.00;31.01
5905;BME280;2978;42.012;24.880;2022-07-19T09:23:25;99369.94;;;27.88;31.10
5905;BME280;2978;42.012;24.880;2022-07-19T09:25:54;99375.56;;;28.07;31.17
5905;BME280;2978;42.012;24.880;2022-07-19T09:28:21;99380.22;;;27.96;30.86
5905;BME280;2978;42.012;24.880;2022-07-19T09:30:51;99371.75;;;27.96;31.02
5905;BME280;2978;42.012;24.880;2022-07-19T09:33:21;99372.69;;;28.04;31.32
5905;BME280;2978;42.012;24.880;2022-07-19T09:35:54;99368.59;;;28.01;31.51
5905;BME280;2978;42.012;24.880;2022-07-19T09:38:27;99368.16;;;27.99;31.57
5905;BME280;2978;42.012;24.880;2022-07-19T09:43:59;99366.63;;;28.24;31.51
5905;BME280;2978;42.012;24.880;2022-07-19T09:46:39;99358.06;;;28.21;31.81
5905;BME280;2978;42.012;24.880;2022-07-19T09:51:36;99375.22;;;28.31;31.72
5905;BME280;2978;42.012;24.880;2022-07-19T09:54:03;99364.59;;;28.25;31.30
5905;BME280;2978;42.012;24.880;2022-07-19T09:56:30;99360.19;;;28.27;31.23
5905;BME280;2978;42.012;24.880;2022-07-19T09:58:57;99352.78;;;28.42;30.89
5905;BME280;2978;42.012;24.880;2022-07-19T10:01:24;99355.03;;;28.55;30.81
5905;BME280;2978;42.012;24.880;2022-07-19T10:03:52;99358.53;;;28.49;30.97
5905;BME280;2978;42.012;24.880;2022-07-19T10:06:19;99349.69;;;28.50;30.92
5905;BME280;2978;42.012;24.880;2022-07-19T10:08:45;99356.78;;;28.41;30.36
5905;BME280;2978;42.012;24.880;2022-07-19T10:11:11;99334.66;;;28.46;31.03
5905;BME280;2978;42.012;24.880;2022-07-19T10:13:36;99335.69;;;28.57;30.53
5905;BME280;2978;42.012;24.880;2022-07-19T10:16:04;99338.88;;;28.56;30.93
5905;BME280;2978;42.012;24.880;2022-07-19T10:18:37;99334.22;;;28.44;31.46
5905;BME280;2978;42.012;24.880;2022-07-19T10:21:06;99341.75;;;28.59;30.97
5905;BME280;2978;42.012;24.880;2022-07-19T10:23:33;99323.91;;;28.55;31.37
5905;BME280;2978;42.012;24.880;2022-07-19T10:25:59;99324.13;;;28.69;31.39
5905;BME280;2978;42.012;24.880;2022-07-19T10:28:31;99330.00;;;28.84;30.83
5905;BME280;2978;42.012;24.880;2022-07-19T10:30:57;99331.88;;;29.02;30.48
5905;BME280;2978;42.012;24.880;2022-07-19T10:33:34;99327.03;;;29.03;30.61
5905;BME280;2978;42.012;24.880;2022-07-19T10:36:39;99316.13;;;29.31;30.33
5905;BME280;2978;42.012;24.880;2022-07-19T10:44:34;99318.84;;;28.94;30.71
5905;BME280;2978;42.012;24.880;2022-07-19T10:47:00;99305.72;;;28.83;31.04
5905;BME280;2978;42.012;24.880;2022-07-19T10:49:46;99310.41;;;28.98;30.72
5905;BME280;2978;42.012;24.880;2022-07-19T11:02:44;99302.84;;;29.09;30.16
5905;BME280;2978;42.012;24.880;2022-07-19T11:05:27;99293.69;;;29.19;30.27
5905;BME280;2978;42.012;24.880;2022-07-19T11:07:57;99288.44;;;29.21;30.00
5905;BME280;2978;42.012;24.880;2022-07-19T11:10:30;99290.84;;;29.19;30.48
5905;BME280;2978;42.012;24.880;2022-07-19T11:12:57;99282.91;;;29.31;30.29
5905;BME280;2978;42.012;24.880;2022-07-19T11:15:24;99275.25;;;29.32;30.73
5905;BME280;2978;42.012;24.880;2022-07-19T11:17:58;99274.28;;;29.21;30.55
5905;BME280;2978;42.012;24.880;2022-07-19T11:20:26;99281.56;;;29.18;30.84
5905;BME280;2978;42.012;24.880;2022-07-19T11:22:52;99266.13;;;29.16;30.89
5905;BME280;2978;42.012;24.880;2022-07-19T11:25:38;99267.53;;;29.29;30.81
5905;BME280;2978;42.012;24.880;2022-07-19T11:28:19;99258.38;;;29.42;29.57
5905;BME280;2978;42.012;24.880;2022-07-19T11:30:45;99268.97;;;29.49;29.70
5905;BME280;2978;42.012;24.880;2022-07-19T11:33:10;99259.75;;;29.59;30.05
5905;BME280;2978;42.012;24.880;2022-07-19T11:35:35;99247.09;;;29.49;29.57
5905;BME280;2978;42.012;24.880;2022-07-19T11:38:01;99261.00;;;29.25;30.01
5905;BME280;2978;42.012;24.880;2022-07-19T11:40:35;99252.63;;;29.35;29.97
5905;BME280;2978;42.012;24.880;2022-07-19T11:43:06;99241.19;;;29.28;29.75
5905;BME280;2978;42.012;24.880;2022-07-19T11:45:41;99247.91;;;29.13;30.19
5905;BME280;2978;42.012;24.880;2022-07-19T11:48:06;99247.59;;;29.22;30.43
5905;BME280;2978;42.012;24.880;2022-07-19T11:50:32;99256.09;;;29.22;29.10
5905;BME280;2978;42.012;24.880;2022-07-19T11:52:59;99239.94;;;29.26;28.91
5905;BME280;2978;42.012;24.880;2022-07-19T11:55:28;99241.69;;;29.34;29.08
5905;BME280;2978;42.012;24.880;2022-07-19T11:57:54;99249.63;;;29.21;28.96
5905;BME280;2978;42.012;24.880;2022-07-19T12:00:21;99250.44;;;29.22;29.32
5905;BME280;2978;42.012;24.880;2022-07-19T12:05:27;99231.16;;;29.34;29.10
5905;BME280;2978;42.012;24.880;2022-07-19T12:07:56;99221.53;;;29.42;28.75
5905;BME280;2978;42.012;24.880;2022-07-19T12:10:45;99233.00;;;29.56;28.91
5905;BME280;2978;42.012;24.880;2022-07-19T12:13:16;99227.41;;;29.63;28.84
5905;BME280;2978;42.012;24.880;2022-07-19T12:15:54;99224.53;;;29.60;28.59
5905;BME280;2978;42.012;24.880;2022-07-19T12:18:23;99231.56;;;29.73;28.40
5905;BME280;2978;42.012;24.880;2022-07-19T12:21:17;99226.31;;;29.75;28.01
5905;BME280;2978;42.012;24.880;2022-07-19T12:24:10;99222.41;;;29.87;27.81
5905;BME280;2978;42.012;24.880;2022-07-19T12:26:36;99212.22;;;29.82;28.29
5905;BME280;2978;42.012;24.880;2022-07-19T12:29:16;99213.63;;;30.02;28.08
5905;BME280;2978;42.012;24.880;2022-07-19T12:31:45;99214.81;;;30.01;27.24
5905;BME280;2978;42.012;24.880;2022-07-19T12:34:15;99214.28;;;29.88;27.32
5905;BME280;2978;42.012;24.880;2022-07-19T12:36:40;99205.81;;;29.92;27.38
5905;BME280;2978;42.012;24.880;2022-07-19T12:39:17;99186.75;;;29.89;27.68
5905;BME280;2978;42.012;24.880;2022-07-19T12:42:06;99197.00;;;30.04;27.70
5905;BME280;2978;42.012;24.880;2022-07-19T12:44:33;99187.31;;;30.09;27.56
5905;BME280;2978;42.012;24.880;2022-07-19T12:46:59;99189.75;;;30.10;27.67
5905;BME280;2978;42.012;24.880;2022-07-19T12:49:25;99191.41;;;30.18;27.78
5905;BME280;2978;42.012;24.880;2022-07-19T12:51:51;99174.13;;;30.34;27.28
5905;BME280;2978;42.012;24.880;2022-07-19T12:54:17;99181.94;;;30.47;27.29
5905;BME280;2978;42.012;24.880;2022-07-19T12:56:43;99189.94;;;30.31;27.30
5905;BME280;2978;42.012;24.880;2022-07-19T12:59:08;99183.34;;;30.20;27.01
5905;BME280;2978;42.012;24.880;2022-07-19T13:01:53;99173.59;;;30.14;27.42
5905;BME280;2978;42.012;24.880;2022-07-19T13:04:18;99180.44;;;30.13;27.38
5905;BME280;2978;42.012;24.880;2022-07-19T13:06:43;99174.41;;;30.18;27.28
5905;BME280;2978;42.012;24.880;2022-07-19T13:09:09;99166.72;;;30.19;27.28
5905;BME280;2978;42.012;24.880;2022-07-19T13:11:35;99172.06;;;30.27;27.38
5905;BME280;2978;42.012;24.880;2022-07-19T13:14:01;99155.47;;;30.33;28.08
5905;BME280;2978;42.012;24.880;2022-07-19T13:16:27;99163.69;;;30.52;27.56
5905;BME280;2978;42.012;24.880;2022-07-19T13:18:52;99166.91;;;30.43;27.49
5905;BME280;2978;42.012;24.880;2022-07-19T13:21:19;99157.88;;;30.27;27.84
5905;BME280;2978;42.012;24.880;2022-07-19T13:23:45;99168.06;;;30.32;28.16
5905;BME280;2978;42.012;24.880;2022-07-19T13:26:11;99154.31;;;30.44;27.61
5905;BME280;2978;42.012;24.880;2022-07-19T13:28:37;99158.78;;;30.42;27.37
5905;BME280;2978;42.012;24.880;2022-07-19T13:31:05;99153.88;;;30.35;27.44
5905;BME280;2978;42.012;24.880;2022-07-19T13:33:30;99158.22;;;30.22;27.23
5905;BME280;2978;42.012;24.880;2022-07-19T13:35:56;99163.00;;;30.11;27.57
5905;BME280;2978;42.012;24.880;2022-07-19T13:38:21;99152.31;;;29.91;27.73
5905;BME280;2978;42.012;24.880;2022-07-19T13:40:47;99142.56;;;29.84;28.10